createdAt,value
2018-12-01T00:00:05.385Z,3.06
2018-12-01T00:01:05.120Z,3.06
2018-12-01T00:02:07.039Z,3.06
2018-12-01T00:03:06.941Z,3.06
2018-12-01T00:04:07.163Z,3.06
2018-12-01T00:05:07.015Z,3.06
2018-12-01T00:06:07.180Z,3.06
2018-12-01T00:07:06.942Z,3.06
2018-12-01T00:08:07.233Z,3.06
2018-12-01T00:09:05.023Z,3.06
2018-12-01T00:10:07.181Z,3.00
2018-12-01T00:11:07.021Z,3.06
2018-12-01T00:12:05.066Z,3.06
2018-12-01T00:13:05.097Z,3.06
2018-12-01T00:14:05.309Z,3.00
2018-12-01T00:15:05.372Z,3.00
2018-12-01T00:16:05.140Z,3.00
2018-12-01T00:17:06.995Z,3.00
2018-12-01T00:18:07.186Z,3.00
2018-12-01T00:19:05.377Z,3.00
2018-12-01T00:20:05.026Z,3.00
2018-12-01T00:21:05.340Z,3.00
2018-12-01T00:22:07.194Z,3.00
2018-12-01T00:23:05.357Z,3.00
2018-12-01T00:24:06.932Z,3.00
2018-12-01T00:25:07.170Z,3.00
2018-12-01T00:26:07.063Z,3.06
2018-12-01T00:27:05.033Z,3.00
2018-12-01T00:28:05.155Z,3.00
2018-12-01T00:29:07.199Z,3.06
2018-12-01T00:30:07.079Z,3.06
2018-12-01T00:31:04.984Z,3.06
2018-12-01T00:32:05.293Z,3.06
2018-12-01T00:33:07.208Z,3.00
2018-12-01T00:34:05.131Z,3.06
2018-12-01T00:35:07.199Z,3.00
2018-12-01T00:36:05.026Z,3.00
2018-12-01T00:37:05.195Z,3.00
2018-12-01T00:38:07.053Z,3.00
2018-12-01T00:39:04.964Z,3.00
2018-12-01T00:40:05.304Z,3.00
2018-12-01T00:41:05.094Z,3.00
2018-12-01T00:42:07.227Z,3.00
2018-12-01T00:43:04.964Z,3.00
2018-12-01T00:44:05.183Z,2.94
2018-12-01T00:45:07.009Z,2.94
2018-12-01T00:46:07.190Z,2.94
2018-12-01T00:47:07.057Z,2.94
2018-12-01T00:48:05.186Z,3.00
2018-12-01T00:49:07.227Z,3.00
2018-12-01T00:50:07.222Z,2.94
2018-12-01T00:51:07.253Z,2.94
2018-12-01T00:52:05.268Z,2.94
2018-12-01T00:53:07.036Z,3.00
2018-12-01T00:54:05.139Z,2.94
2018-12-01T00:55:05.094Z,2.94
2018-12-01T00:56:05.209Z,2.94
2018-12-01T00:57:05.182Z,2.94
2018-12-01T00:58:05.281Z,2.94
2018-12-01T00:59:05.367Z,2.94
2018-12-01T01:00:07.005Z,2.94
2018-12-01T01:01:05.100Z,2.94
2018-12-01T01:02:05.289Z,2.94
2018-12-01T01:03:07.236Z,2.94
2018-12-01T01:04:05.126Z,2.94
2018-12-01T01:05:05.219Z,2.94
2018-12-01T01:06:05.284Z,2.94
2018-12-01T01:07:05.369Z,2.94
2018-12-01T01:08:06.971Z,2.94
2018-12-01T01:09:05.192Z,2.94
2018-12-01T01:10:05.207Z,2.94
2018-12-01T01:11:05.280Z,2.94
2018-12-01T01:12:05.440Z,2.94
2018-12-01T01:13:07.259Z,2.94
2018-12-01T01:14:07.049Z,3.00
2018-12-01T01:15:05.406Z,2.94
2018-12-01T01:16:07.253Z,2.94
2018-12-01T01:17:05.423Z,3.00
2018-12-01T01:18:05.047Z,2.94
2018-12-01T01:19:05.418Z,3.00
2018-12-01T01:20:07.280Z,3.00
2018-12-01T01:21:05.333Z,3.00
2018-12-01T01:22:07.250Z,3.00
2018-12-01T01:23:05.342Z,3.00
2018-12-01T01:24:07.258Z,3.00
2018-12-01T01:25:05.284Z,3.00
2018-12-01T01:26:05.289Z,3.00
2018-12-01T01:27:05.365Z,3.00
2018-12-01T01:28:05.378Z,3.00
2018-12-01T01:29:07.261Z,3.00
2018-12-01T01:30:05.127Z,2.94
2018-12-01T01:31:07.114Z,2.94
2018-12-01T01:32:05.136Z,2.94
2018-12-01T01:33:06.972Z,2.94
2018-12-01T01:34:05.127Z,2.94
2018-12-01T01:35:05.194Z,3.00
2018-12-01T01:36:07.283Z,2.94
2018-12-01T01:37:05.099Z,3.00
2018-12-01T01:38:05.097Z,3.00
2018-12-01T01:39:05.280Z,3.00
2018-12-01T01:40:05.381Z,3.00
2018-12-01T01:41:05.259Z,3.00
2018-12-01T01:42:07.243Z,3.00
2018-12-01T01:43:05.188Z,3.00
2018-12-01T01:44:07.021Z,3.00
2018-12-01T01:45:05.121Z,3.00
2018-12-01T01:46:07.099Z,3.00
2018-12-01T01:47:05.156Z,3.00
2018-12-01T01:48:05.124Z,3.00
2018-12-01T01:49:05.130Z,3.00
2018-12-01T01:50:05.118Z,3.00
2018-12-01T01:51:05.211Z,3.06
2018-12-01T01:52:05.288Z,3.06
2018-12-01T01:53:05.271Z,3.06
2018-12-01T01:54:05.423Z,3.06
2018-12-01T01:55:05.447Z,3.06
2018-12-01T01:56:07.082Z,3.06
2018-12-01T01:57:07.073Z,3.06
2018-12-01T01:58:05.279Z,3.06
2018-12-01T01:59:05.183Z,3.06
2018-12-01T02:00:05.495Z,3.06
2018-12-01T02:01:05.301Z,3.06
2018-12-01T02:02:05.122Z,3.06
2018-12-01T02:03:05.350Z,3.12
2018-12-01T02:04:06.998Z,3.12
2018-12-01T02:05:05.155Z,3.12
2018-12-01T02:06:05.188Z,3.12
2018-12-01T02:07:05.305Z,3.12
2018-12-01T02:08:05.363Z,3.12
2018-12-01T02:09:07.153Z,3.12
2018-12-01T02:10:05.287Z,3.12
2018-12-01T02:11:07.050Z,3.12
2018-12-01T02:12:05.339Z,3.12
2018-12-01T02:13:07.294Z,3.19
2018-12-01T02:14:05.190Z,3.19
2018-12-01T02:15:07.123Z,3.19
2018-12-01T02:16:05.035Z,3.19
2018-12-01T02:17:07.147Z,3.19
2018-12-01T02:18:05.130Z,3.19
2018-12-01T02:19:05.345Z,3.19
2018-12-01T02:20:07.128Z,3.19
2018-12-01T02:21:05.151Z,3.19
2018-12-01T02:22:05.141Z,3.19
2018-12-01T02:23:07.313Z,3.25
2018-12-01T02:24:05.449Z,3.25
2018-12-01T02:25:05.054Z,3.25
2018-12-01T02:26:05.040Z,3.25
2018-12-01T02:27:07.311Z,3.25
2018-12-01T02:28:05.436Z,3.25
2018-12-01T02:29:07.300Z,3.25
2018-12-01T02:30:05.501Z,3.25
2018-12-01T02:31:07.145Z,3.25
2018-12-01T02:32:05.192Z,3.25
2018-12-01T02:33:05.303Z,3.25
2018-12-01T02:34:07.299Z,3.25
2018-12-01T02:35:05.209Z,3.25
2018-12-01T02:36:07.314Z,3.25
2018-12-01T02:37:05.386Z,3.25
2018-12-01T02:38:05.279Z,3.25
2018-12-01T02:39:07.056Z,3.25
2018-12-01T02:40:05.229Z,3.25
2018-12-01T02:41:05.542Z,3.25
2018-12-01T02:42:05.105Z,3.25
2018-12-01T02:43:05.125Z,3.25
2018-12-01T02:44:07.093Z,3.25
2018-12-01T02:45:05.049Z,3.25
2018-12-01T02:46:07.182Z,3.19
2018-12-01T02:47:05.061Z,3.19
2018-12-01T02:48:07.170Z,3.19
2018-12-01T02:49:05.397Z,3.12
2018-12-01T02:50:07.094Z,3.12
2018-12-01T02:51:05.276Z,3.12
2018-12-01T02:52:05.503Z,3.12
2018-12-01T02:53:05.130Z,3.12
2018-12-01T02:54:05.531Z,3.12
2018-12-01T02:55:05.253Z,3.12
2018-12-01T02:56:05.363Z,3.06
2018-12-01T02:57:05.313Z,3.06
2018-12-01T02:58:05.527Z,3.06
2018-12-01T02:59:05.194Z,3.06
2018-12-01T03:00:05.368Z,3.06
2018-12-01T03:01:07.343Z,3.06
2018-12-01T03:02:05.096Z,3.06
2018-12-01T03:03:07.107Z,3.06
2018-12-01T03:04:05.272Z,3.06
2018-12-01T03:05:07.330Z,3.06
2018-12-01T03:06:07.120Z,3.00
2018-12-01T03:07:05.269Z,3.00
2018-12-01T03:08:05.374Z,3.00
2018-12-01T03:09:07.105Z,3.00
2018-12-01T03:10:05.274Z,3.06
2018-12-01T03:11:05.270Z,3.00
2018-12-01T03:12:07.079Z,3.00
2018-12-01T03:13:05.176Z,3.00
2018-12-01T03:14:05.261Z,3.00
2018-12-01T03:15:05.269Z,3.00
2018-12-01T03:16:07.103Z,3.00
2018-12-01T03:17:05.541Z,3.00
2018-12-01T03:18:07.367Z,3.00
2018-12-01T03:19:05.528Z,3.00
2018-12-01T03:20:05.047Z,3.00
2018-12-01T03:21:07.165Z,3.00
2018-12-01T03:22:05.210Z,3.00
2018-12-01T03:23:05.227Z,3.00
2018-12-01T03:24:05.432Z,3.00
2018-12-01T03:25:05.369Z,2.94
2018-12-01T03:26:07.402Z,2.94
2018-12-01T03:27:05.367Z,2.94
2018-12-01T03:28:07.359Z,2.94
2018-12-01T03:29:05.291Z,2.94
2018-12-01T03:30:05.410Z,2.94
2018-12-01T03:31:07.147Z,2.94
2018-12-01T03:32:05.332Z,2.94
2018-12-01T03:33:05.491Z,2.94
2018-12-01T03:34:05.553Z,2.94
2018-12-01T03:35:07.210Z,2.94
2018-12-01T03:36:05.148Z,2.94
2018-12-01T03:37:05.457Z,2.94
2018-12-01T03:38:05.345Z,2.94
2018-12-01T03:39:05.467Z,2.94
2018-12-01T03:40:05.534Z,2.94
2018-12-01T03:41:05.454Z,2.94
2018-12-01T03:42:05.120Z,2.94
2018-12-01T03:43:07.132Z,2.94
2018-12-01T03:44:05.388Z,2.94
2018-12-01T03:45:05.454Z,3.00
2018-12-01T03:46:05.134Z,3.00
2018-12-01T03:47:07.387Z,3.00
2018-12-01T03:48:05.513Z,3.00
2018-12-01T03:49:07.387Z,3.00
2018-12-01T03:50:07.392Z,3.00
2018-12-01T03:51:05.183Z,3.00
2018-12-01T03:52:05.463Z,2.94
2018-12-01T03:53:05.523Z,3.00
2018-12-01T03:54:05.602Z,3.00
2018-12-01T03:55:05.375Z,3.00
2018-12-01T03:56:05.273Z,3.06
2018-12-01T03:57:05.452Z,3.06
2018-12-01T03:58:07.243Z,3.06
2018-12-01T03:59:05.198Z,3.06
2018-12-01T04:00:05.442Z,3.06
2018-12-01T04:01:05.547Z,3.00
2018-12-01T04:02:05.513Z,3.00
2018-12-01T04:03:05.541Z,3.00
2018-12-01T04:04:05.525Z,3.06
2018-12-01T04:06:05.132Z,3.06
2018-12-01T04:07:05.213Z,3.06
2018-12-01T04:08:07.263Z,3.06
2018-12-01T04:09:05.290Z,3.00
2018-12-01T04:10:05.294Z,3.00
2018-12-01T04:11:07.149Z,3.00
2018-12-01T04:12:05.381Z,3.00
2018-12-01T04:13:05.450Z,3.00
2018-12-01T04:14:07.399Z,3.00
2018-12-01T04:15:05.417Z,3.00
2018-12-01T04:16:07.179Z,3.06
2018-12-01T04:17:07.275Z,3.00
2018-12-01T04:18:05.524Z,3.00
2018-12-01T04:19:05.348Z,3.00
2018-12-01T04:20:05.608Z,3.00
2018-12-01T04:21:06.544Z,3.00
2018-12-01T04:22:05.276Z,3.00
2018-12-01T04:23:05.319Z,3.00
2018-12-01T04:24:05.529Z,3.00
2018-12-01T04:25:05.620Z,3.00
2018-12-01T04:26:05.372Z,3.00
2018-12-01T04:27:05.377Z,3.00
2018-12-01T04:28:05.291Z,3.00
2018-12-01T04:29:05.400Z,3.00
2018-12-01T04:30:05.274Z,3.00
2018-12-01T04:31:05.294Z,3.00
2018-12-01T04:32:05.372Z,3.00
2018-12-01T04:33:05.309Z,3.00
2018-12-01T04:34:05.355Z,3.00
2018-12-01T04:35:05.293Z,3.06
2018-12-01T04:36:05.337Z,3.06
2018-12-01T04:37:07.435Z,3.06
2018-12-01T04:38:07.152Z,3.06
2018-12-01T04:39:07.252Z,3.06
2018-12-01T04:40:05.377Z,3.06
2018-12-01T04:41:05.497Z,3.06
2018-12-01T04:42:07.260Z,3.06
2018-12-01T04:43:05.538Z,3.06
2018-12-01T04:44:07.422Z,3.06
2018-12-01T04:45:07.477Z,3.06
2018-12-01T04:46:05.256Z,3.06
2018-12-01T04:47:07.454Z,3.00
2018-12-01T04:48:05.340Z,3.00
2018-12-01T04:49:07.450Z,3.00
2018-12-01T04:50:05.265Z,3.00
2018-12-01T04:51:05.289Z,3.06
2018-12-01T04:52:05.362Z,3.06
2018-12-01T04:53:05.381Z,3.00
2018-12-01T04:54:05.413Z,3.00
2018-12-01T04:55:05.524Z,3.00
2018-12-01T04:56:05.198Z,3.00
2018-12-01T04:57:07.259Z,3.00
2018-12-01T04:58:05.672Z,3.00
2018-12-01T04:59:05.289Z,3.00
2018-12-01T05:00:05.436Z,3.06
2018-12-01T05:01:05.376Z,3.00
2018-12-01T05:02:05.352Z,3.06
2018-12-01T05:03:05.447Z,3.06
2018-12-01T05:04:05.417Z,3.00
2018-12-01T05:05:05.433Z,3.00
2018-12-01T05:06:07.268Z,3.00
2018-12-01T05:07:05.209Z,3.00
2018-12-01T05:08:05.281Z,3.00
2018-12-01T05:09:05.437Z,3.00
2018-12-01T05:10:07.315Z,3.00
2018-12-01T05:11:05.356Z,3.00
2018-12-01T05:12:05.440Z,3.00
2018-12-01T05:13:07.461Z,3.06
2018-12-01T05:14:05.432Z,3.00
2018-12-01T05:15:07.278Z,3.00
2018-12-01T05:16:05.127Z,3.06
2018-12-01T05:17:07.357Z,3.06
2018-12-01T05:18:05.523Z,3.06
2018-12-01T05:19:07.458Z,3.06
2018-12-01T05:20:05.388Z,3.06
2018-12-01T05:21:05.421Z,3.06
2018-12-01T05:22:07.325Z,3.06
2018-12-01T05:23:05.276Z,3.06
2018-12-01T05:24:05.183Z,3.06
2018-12-01T05:25:07.319Z,3.06
2018-12-01T05:26:05.689Z,3.06
2018-12-01T05:27:05.356Z,3.06
2018-12-01T05:28:07.235Z,3.12
2018-12-01T05:29:05.517Z,3.12
2018-12-01T05:30:05.431Z,3.12
2018-12-01T05:31:07.433Z,3.12
2018-12-01T05:32:05.257Z,3.12
2018-12-01T05:33:05.339Z,3.12
2018-12-01T05:34:05.512Z,3.19
2018-12-01T05:35:07.252Z,3.19
2018-12-01T05:36:05.364Z,3.19
2018-12-01T05:37:07.333Z,3.19
2018-12-01T05:38:05.188Z,3.19
2018-12-01T05:39:05.345Z,3.19
2018-12-01T05:40:07.503Z,3.19
2018-12-01T05:41:05.659Z,3.19
2018-12-01T05:42:05.259Z,3.19
2018-12-01T05:43:05.687Z,3.19
2018-12-01T05:44:05.204Z,3.19
2018-12-01T05:45:05.531Z,3.19
2018-12-01T05:46:05.589Z,3.25
2018-12-01T05:47:05.505Z,3.25
2018-12-01T05:48:05.655Z,3.25
2018-12-01T05:49:05.206Z,3.25
2018-12-01T05:50:05.351Z,3.25
2018-12-01T05:51:07.266Z,3.25
2018-12-01T05:52:05.528Z,3.25
2018-12-01T05:53:05.545Z,3.25
2018-12-01T05:54:05.356Z,3.25
2018-12-01T05:55:07.809Z,3.25
2018-12-01T05:56:05.352Z,3.25
2018-12-01T05:57:07.370Z,3.25
2018-12-01T05:58:07.258Z,3.25
2018-12-01T05:59:05.587Z,3.25
2018-12-01T06:00:05.512Z,3.25
2018-12-01T06:01:07.352Z,3.31
2018-12-01T06:02:05.268Z,3.31
2018-12-01T06:03:05.283Z,3.31
2018-12-01T06:04:05.422Z,3.31
2018-12-01T06:05:07.515Z,3.31
2018-12-01T06:06:05.344Z,3.31
2018-12-01T06:07:07.519Z,3.31
2018-12-01T06:08:05.675Z,3.31
2018-12-01T06:09:05.701Z,3.31
2018-12-01T06:10:05.609Z,3.38
2018-12-01T06:11:05.714Z,3.38
2018-12-01T06:12:05.418Z,3.38
2018-12-01T06:13:05.366Z,3.38
2018-12-01T06:14:05.605Z,3.38
2018-12-01T06:15:07.335Z,3.38
2018-12-01T06:16:07.252Z,3.38
2018-12-01T06:17:05.594Z,3.38
2018-12-01T06:18:07.349Z,3.38
2018-12-01T06:19:05.384Z,3.38
2018-12-01T06:20:05.750Z,3.44
2018-12-01T06:21:05.216Z,3.38
2018-12-01T06:22:05.286Z,3.44
2018-12-01T06:23:05.129Z,3.44
2018-12-01T06:24:07.376Z,3.44
2018-12-01T06:25:05.184Z,3.44
2018-12-01T06:26:05.366Z,3.44
2018-12-01T06:27:05.372Z,3.44
2018-12-01T06:28:05.448Z,3.44
2018-12-01T06:29:05.062Z,3.50
2018-12-01T06:30:05.744Z,3.50
2018-12-01T06:31:05.376Z,3.50
2018-12-01T06:32:05.290Z,3.50
2018-12-01T06:33:05.264Z,3.50
2018-12-01T06:34:05.426Z,3.50
2018-12-01T06:35:05.381Z,3.50
2018-12-01T06:36:05.375Z,3.50
2018-12-01T06:37:05.445Z,3.50
2018-12-01T06:38:05.143Z,3.50
2018-12-01T06:39:05.052Z,3.56
2018-12-01T06:40:05.028Z,3.56
2018-12-01T06:41:05.025Z,3.56
2018-12-01T06:42:05.352Z,3.50
2018-12-01T06:43:07.571Z,3.50
2018-12-01T06:44:05.432Z,3.56
2018-12-01T06:45:07.371Z,3.56
2018-12-01T06:46:05.364Z,3.56
2018-12-01T06:47:05.541Z,3.56
2018-12-01T06:48:07.382Z,3.56
2018-12-01T06:49:05.314Z,3.56
2018-12-01T06:50:05.362Z,3.56
2018-12-01T06:51:05.398Z,3.56
2018-12-01T06:52:07.479Z,3.56
2018-12-01T06:53:05.541Z,3.56
2018-12-01T06:54:07.531Z,3.56
2018-12-01T06:55:07.422Z,3.56
2018-12-01T06:56:05.437Z,3.56
2018-12-01T06:57:05.475Z,3.56
2018-12-01T06:58:05.594Z,3.56
2018-12-01T06:59:07.538Z,3.56
2018-12-01T07:00:05.505Z,3.56
2018-12-01T07:01:05.506Z,3.56
2018-12-01T07:02:07.426Z,3.56
2018-12-01T07:03:05.392Z,3.56
2018-12-01T07:04:05.201Z,3.56
2018-12-01T07:05:07.410Z,3.56
2018-12-01T07:06:05.258Z,3.56
2018-12-01T07:07:05.554Z,3.56
2018-12-01T07:08:07.418Z,3.56
2018-12-01T07:09:05.597Z,3.56
2018-12-01T07:10:05.611Z,3.56
2018-12-01T07:11:05.696Z,3.56
2018-12-01T07:12:05.047Z,3.56
2018-12-01T07:13:05.035Z,3.56
2018-12-01T07:14:05.115Z,3.56
2018-12-01T07:15:05.130Z,3.56
2018-12-01T07:16:05.102Z,3.56
2018-12-01T07:17:05.140Z,3.56
2018-12-01T07:18:05.677Z,3.56
2018-12-01T07:19:05.628Z,3.56
2018-12-01T07:20:05.691Z,3.56
2018-12-01T07:21:07.437Z,3.56
2018-12-01T07:22:05.343Z,3.56
2018-12-01T07:23:07.466Z,3.62
2018-12-01T07:24:05.367Z,3.62
2018-12-01T07:25:05.450Z,3.62
2018-12-01T07:26:07.432Z,3.62
2018-12-01T07:27:05.543Z,3.62
2018-12-01T07:28:05.631Z,3.62
2018-12-01T07:29:07.440Z,3.62
2018-12-01T07:30:05.146Z,3.62
2018-12-01T07:31:05.294Z,3.69
2018-12-01T07:32:07.307Z,3.69
2018-12-01T07:33:05.612Z,3.69
2018-12-01T07:34:05.536Z,3.69
2018-12-01T07:35:05.667Z,3.69
2018-12-01T07:36:07.394Z,3.69
2018-12-01T07:37:05.543Z,3.75
2018-12-01T07:38:05.523Z,3.75
2018-12-01T07:39:05.526Z,3.75
2018-12-01T07:40:05.116Z,3.75
2018-12-01T07:41:05.161Z,3.75
2018-12-01T07:42:07.438Z,3.75
2018-12-01T07:43:05.468Z,3.75
2018-12-01T07:44:05.340Z,3.81
2018-12-01T07:45:05.272Z,3.81
2018-12-01T07:46:05.780Z,3.81
2018-12-01T07:47:05.796Z,3.81
2018-12-01T07:48:05.449Z,3.81
2018-12-01T07:49:07.331Z,3.81
2018-12-01T07:50:05.298Z,3.88
2018-12-01T07:51:07.616Z,3.88
2018-12-01T07:52:05.615Z,3.88
2018-12-01T07:53:05.596Z,3.88
2018-12-01T07:54:07.448Z,3.88
2018-12-01T07:55:05.212Z,3.88
2018-12-01T07:56:05.607Z,3.94
2018-12-01T07:57:05.644Z,3.94
2018-12-01T07:58:05.589Z,3.94
2018-12-01T07:59:05.607Z,3.94
2018-12-01T08:00:05.695Z,4.00
2018-12-01T08:01:05.770Z,4.00
2018-12-01T08:02:07.449Z,4.00
2018-12-01T08:03:05.134Z,4.00
2018-12-01T08:04:05.298Z,4.00
2018-12-01T08:05:07.368Z,4.06
2018-12-01T08:06:05.440Z,4.06
2018-12-01T08:07:05.349Z,4.06
2018-12-01T08:08:05.371Z,4.12
2018-12-01T08:09:05.298Z,4.12
2018-12-01T08:10:05.533Z,4.12
2018-12-01T08:11:05.456Z,4.12
2018-12-01T08:12:05.502Z,4.12
2018-12-01T08:13:05.765Z,4.19
2018-12-01T08:14:05.210Z,4.19
2018-12-01T08:15:05.526Z,4.19
2018-12-01T08:16:05.100Z,4.19
2018-12-01T08:17:05.203Z,4.19
2018-12-01T08:18:07.395Z,4.19
2018-12-01T08:19:05.623Z,4.25
2018-12-01T08:20:07.407Z,4.25
2018-12-01T08:21:05.630Z,4.25
2018-12-01T08:22:05.742Z,4.25
2018-12-01T08:23:07.433Z,4.25
2018-12-01T08:24:05.375Z,4.25
2018-12-01T08:25:05.533Z,4.31
2018-12-01T08:26:05.050Z,4.31
2018-12-01T08:27:05.301Z,4.31
2018-12-01T08:28:07.433Z,4.31
2018-12-01T08:29:05.350Z,4.38
2018-12-01T08:30:05.495Z,4.38
2018-12-01T08:31:07.482Z,4.38
2018-12-01T08:32:05.511Z,4.44
2018-12-01T08:33:05.708Z,4.44
2018-12-01T08:34:05.674Z,4.44
2018-12-01T08:35:05.710Z,4.50
2018-12-01T08:36:07.410Z,4.50
2018-12-01T08:37:05.259Z,4.50
2018-12-01T08:38:05.440Z,4.50
2018-12-01T08:39:05.451Z,4.56
2018-12-01T08:40:05.422Z,4.56
2018-12-01T08:41:05.624Z,4.56
2018-12-01T08:42:05.664Z,4.56
2018-12-01T08:43:05.058Z,4.62
2018-12-01T08:44:05.038Z,4.62
2018-12-01T08:45:05.050Z,4.62
2018-12-01T08:46:07.505Z,4.69
2018-12-01T08:47:05.540Z,4.69
2018-12-01T08:48:05.433Z,4.69
2018-12-01T08:49:07.527Z,4.75
2018-12-01T08:50:05.680Z,4.75
2018-12-01T08:51:05.706Z,4.75
2018-12-01T08:52:05.613Z,4.81
2018-12-01T08:53:05.694Z,4.81
2018-12-01T08:54:05.691Z,4.88
2018-12-01T08:55:05.836Z,4.88
2018-12-01T08:56:05.422Z,4.88
2018-12-01T08:57:05.624Z,4.94
2018-12-01T08:58:05.590Z,4.94
2018-12-01T08:59:05.783Z,4.94
2018-12-01T09:00:05.122Z,5.00
2018-12-01T09:01:07.467Z,5.06
2018-12-01T09:02:05.686Z,5.06
2018-12-01T09:03:05.153Z,5.06
2018-12-01T09:04:05.291Z,5.12
2018-12-01T09:05:05.422Z,5.12
2018-12-01T09:06:05.500Z,5.19
2018-12-01T09:07:05.775Z,5.19
2018-12-01T09:08:07.538Z,5.25
2018-12-01T09:09:05.371Z,5.25
2018-12-01T09:10:05.915Z,5.25
2018-12-01T09:11:05.380Z,5.31
2018-12-01T09:12:07.702Z,5.38
2018-12-01T09:13:05.458Z,5.38
2018-12-01T09:14:07.515Z,5.38
2018-12-01T09:15:05.443Z,5.44
2018-12-01T09:16:05.753Z,5.44
2018-12-01T09:17:05.895Z,5.44
2018-12-01T09:18:05.681Z,5.50
2018-12-01T09:19:05.736Z,5.50
2018-12-01T09:20:07.485Z,5.56
2018-12-01T09:21:05.460Z,5.56
2018-12-01T09:22:05.467Z,5.62
2018-12-01T09:23:05.621Z,5.69
2018-12-01T09:24:05.746Z,5.69
2018-12-01T09:25:05.772Z,5.75
2018-12-01T09:26:05.740Z,5.81
2018-12-01T09:27:05.846Z,5.81
2018-12-01T09:28:05.469Z,5.88
2018-12-01T09:29:07.439Z,5.94
2018-12-01T09:30:05.596Z,5.94
2018-12-01T09:31:07.572Z,5.94
2018-12-01T09:32:07.518Z,6.00
2018-12-01T09:33:05.651Z,6.00
2018-12-01T09:34:07.534Z,6.00
2018-12-01T09:35:07.513Z,6.06
2018-12-01T09:36:05.533Z,6.06
2018-12-01T09:37:05.836Z,6.06
2018-12-01T09:38:05.257Z,6.12
2018-12-01T09:39:07.539Z,6.12
2018-12-01T09:40:05.903Z,6.12
2018-12-01T09:41:05.453Z,6.19
2018-12-01T09:42:05.468Z,6.19
2018-12-01T09:43:05.538Z,6.25
2018-12-01T09:44:05.035Z,6.25
2018-12-01T09:45:05.912Z,6.25
2018-12-01T09:46:05.592Z,6.31
2018-12-01T09:47:05.021Z,6.31
2018-12-01T09:48:05.207Z,6.38
2018-12-01T09:49:05.626Z,6.38
2018-12-01T09:50:05.621Z,6.44
2018-12-01T09:51:07.534Z,6.44
2018-12-01T09:52:05.837Z,6.44
2018-12-01T09:53:05.940Z,6.44
2018-12-01T09:54:05.609Z,6.50
2018-12-01T09:55:05.739Z,6.50
2018-12-01T09:56:05.912Z,6.50
2018-12-01T09:57:05.457Z,6.56
2018-12-01T09:58:05.362Z,6.56
2018-12-01T09:59:05.320Z,6.62
2018-12-01T10:00:05.290Z,6.62
2018-12-01T10:01:05.466Z,6.69
2018-12-01T10:02:05.413Z,6.75
2018-12-01T10:03:05.527Z,6.81
2018-12-01T10:04:05.895Z,6.88
2018-12-01T10:05:05.459Z,6.88
2018-12-01T10:06:05.114Z,6.94
2018-12-01T10:07:05.131Z,6.94
2018-12-01T10:08:05.017Z,7.00
2018-12-01T10:09:05.047Z,7.06
2018-12-01T10:10:07.541Z,7.12
2018-12-01T10:11:05.613Z,7.19
2018-12-01T10:12:07.461Z,7.19
2018-12-01T10:13:05.535Z,7.25
2018-12-01T10:14:05.518Z,7.31
2018-12-01T10:15:05.616Z,7.31
2018-12-01T10:16:05.636Z,7.38
2018-12-01T10:17:05.807Z,7.44
2018-12-01T10:18:05.776Z,7.50
2018-12-01T10:19:05.856Z,7.50
2018-12-01T10:20:05.950Z,7.56
2018-12-01T10:21:05.654Z,7.56
2018-12-01T10:22:05.221Z,7.62
2018-12-01T10:23:05.169Z,7.62
2018-12-01T10:24:05.201Z,7.69
2018-12-01T10:25:05.094Z,7.69
2018-12-01T10:26:05.048Z,7.69
2018-12-01T10:27:05.107Z,7.75
2018-12-01T10:28:05.290Z,7.75
2018-12-01T10:29:07.579Z,7.81
2018-12-01T10:30:05.925Z,7.81
2018-12-01T10:31:05.453Z,7.81
2018-12-01T10:32:05.472Z,7.81
2018-12-01T10:33:05.365Z,7.81
2018-12-01T10:34:05.346Z,7.81
2018-12-01T10:35:05.614Z,7.88
2018-12-01T10:36:05.674Z,7.88
2018-12-01T10:37:07.488Z,7.88
2018-12-01T10:38:05.669Z,7.88
2018-12-01T10:39:07.568Z,7.88
2018-12-01T10:40:05.743Z,7.88
2018-12-01T10:41:05.037Z,7.88
2018-12-01T10:42:05.035Z,7.88
2018-12-01T10:43:05.292Z,7.88
2018-12-01T10:44:05.369Z,7.94
2018-12-01T10:45:05.429Z,7.94
2018-12-01T10:46:05.367Z,7.94
2018-12-01T10:47:05.049Z,7.94
2018-12-01T10:48:05.130Z,7.94
2018-12-01T10:49:05.204Z,7.94
2018-12-01T10:50:05.134Z,7.94
2018-12-01T10:51:05.203Z,7.94
2018-12-01T10:52:05.053Z,7.94
2018-12-01T10:53:05.035Z,7.94
2018-12-01T10:54:05.237Z,7.94
2018-12-01T10:55:05.448Z,7.94
2018-12-01T10:56:05.595Z,7.94
2018-12-01T10:57:05.687Z,7.94
2018-12-01T10:58:05.856Z,7.88
2018-12-01T10:59:05.914Z,7.88
2018-12-01T11:00:05.024Z,7.88
2018-12-01T11:01:05.363Z,7.88
2018-12-01T11:02:05.210Z,7.88
2018-12-01T11:03:05.055Z,7.88
2018-12-01T11:04:05.181Z,7.88
2018-12-01T11:05:05.443Z,7.88
2018-12-01T11:06:05.372Z,7.88
2018-12-01T11:07:05.343Z,7.88
2018-12-01T11:08:05.468Z,7.88
2018-12-01T11:09:05.528Z,7.88
2018-12-01T11:10:05.229Z,7.88
2018-12-01T11:11:05.058Z,7.88
2018-12-01T11:12:05.100Z,7.88
2018-12-01T11:13:05.295Z,7.88
2018-12-01T11:14:05.282Z,7.88
2018-12-01T11:15:05.615Z,7.88
2018-12-01T11:16:05.526Z,7.88
2018-12-01T11:17:05.104Z,7.94
2018-12-01T11:18:05.226Z,7.94
2018-12-01T11:19:05.208Z,7.94
2018-12-01T11:20:05.239Z,7.94
2018-12-01T11:21:05.055Z,7.94
2018-12-01T11:22:05.298Z,7.94
2018-12-01T11:23:05.378Z,7.94
2018-12-01T11:24:05.372Z,7.94
2018-12-01T11:25:05.664Z,7.94
2018-12-01T11:26:05.685Z,7.94
2018-12-01T11:27:05.035Z,7.94
2018-12-01T11:28:05.151Z,7.94
2018-12-01T11:29:05.687Z,7.94
2018-12-01T11:30:05.697Z,7.94
2018-12-01T11:31:05.742Z,7.94
2018-12-01T11:32:05.141Z,7.94
2018-12-01T11:33:05.204Z,7.94
2018-12-01T11:34:05.194Z,7.94
2018-12-01T11:35:05.431Z,7.94
2018-12-01T11:36:05.618Z,7.94
2018-12-01T11:37:05.670Z,7.94
2018-12-01T11:38:05.302Z,7.94
2018-12-01T11:39:05.357Z,7.94
2018-12-01T11:40:05.368Z,7.94
2018-12-01T11:41:05.349Z,7.94
2018-12-01T11:42:05.210Z,7.94
2018-12-01T11:43:05.282Z,7.94
2018-12-01T11:44:05.127Z,7.94
2018-12-01T11:45:05.272Z,7.94
2018-12-01T11:46:05.306Z,7.94
2018-12-01T11:47:05.037Z,7.94
2018-12-01T11:48:05.219Z,7.94
2018-12-01T11:49:05.183Z,7.94
2018-12-01T11:50:05.303Z,7.94
2018-12-01T11:51:05.373Z,7.94
2018-12-01T11:52:05.564Z,8.00
2018-12-01T11:53:05.357Z,8.00
2018-12-01T11:54:05.454Z,8.06
2018-12-01T11:55:05.616Z,8.06
2018-12-01T11:56:05.622Z,8.06
2018-12-01T11:57:05.275Z,8.00
2018-12-01T11:58:05.204Z,8.00
2018-12-01T11:59:05.269Z,8.00
2018-12-01T12:00:05.205Z,8.00
2018-12-01T12:01:05.217Z,8.00
2018-12-01T12:02:05.055Z,8.00
2018-12-01T12:03:05.184Z,8.06
2018-12-01T12:04:05.371Z,8.06
2018-12-01T12:05:05.125Z,8.06
2018-12-01T12:06:05.445Z,8.00
2018-12-01T12:07:05.297Z,8.00
2018-12-01T12:08:05.637Z,8.00
2018-12-01T12:09:05.539Z,8.00
2018-12-01T12:10:05.854Z,8.00
2018-12-01T12:11:05.292Z,8.00
2018-12-01T12:12:07.670Z,8.00
2018-12-01T12:13:05.844Z,8.00
2018-12-01T12:14:05.863Z,8.00
2018-12-01T12:15:06.013Z,8.00
2018-12-01T12:16:05.821Z,8.00
2018-12-01T12:17:07.589Z,8.00
2018-12-01T12:18:05.701Z,8.00
2018-12-01T12:19:05.666Z,8.00
2018-12-01T12:20:05.140Z,8.00
2018-12-01T12:21:05.205Z,8.00
2018-12-01T12:22:05.234Z,8.00
2018-12-01T12:23:05.207Z,8.00
2018-12-01T12:24:05.214Z,8.00
2018-12-01T12:25:05.204Z,8.00
2018-12-01T12:26:05.027Z,8.06
2018-12-01T12:27:05.283Z,8.06
2018-12-01T12:28:05.421Z,8.06
2018-12-01T12:29:05.789Z,8.06
2018-12-01T12:30:05.848Z,8.06
2018-12-01T12:31:05.263Z,8.06
2018-12-01T12:32:05.269Z,8.06
2018-12-01T12:33:05.682Z,8.06
2018-12-01T12:34:05.216Z,8.06
2018-12-01T12:35:05.120Z,8.06
2018-12-01T12:36:05.219Z,8.06
2018-12-01T12:37:05.375Z,8.06
2018-12-01T12:38:05.236Z,8.06
2018-12-01T12:39:05.187Z,8.06
2018-12-01T12:40:05.115Z,8.06
2018-12-01T12:41:05.194Z,8.06
2018-12-01T12:42:05.224Z,8.06
2018-12-01T12:43:05.422Z,8.06
2018-12-01T12:44:05.296Z,8.06
2018-12-01T12:45:05.273Z,8.12
2018-12-01T12:46:05.127Z,8.06
2018-12-01T12:47:05.129Z,8.12
2018-12-01T12:48:05.469Z,8.12
2018-12-01T12:49:05.474Z,8.12
2018-12-01T12:50:05.557Z,8.12
2018-12-01T12:51:05.821Z,8.12
2018-12-01T12:52:05.930Z,8.06
2018-12-01T12:53:05.519Z,8.06
2018-12-01T12:54:05.517Z,8.06
2018-12-01T12:55:05.653Z,8.06
2018-12-01T12:56:05.385Z,8.06
2018-12-01T12:57:05.351Z,8.06
2018-12-01T12:58:05.387Z,8.06
2018-12-01T12:59:05.687Z,8.06
2018-12-01T13:00:05.697Z,8.06
2018-12-01T13:01:05.197Z,8.06
2018-12-01T13:02:05.391Z,8.00
2018-12-01T13:03:05.349Z,8.00
2018-12-01T13:04:05.212Z,8.00
2018-12-01T13:05:05.266Z,8.00
2018-12-01T13:06:05.210Z,7.94
2018-12-01T13:07:05.209Z,8.00
2018-12-01T13:08:05.300Z,7.94
2018-12-01T13:09:05.254Z,8.00
2018-12-01T13:10:05.124Z,7.94
2018-12-01T13:11:05.021Z,7.94
2018-12-01T13:12:05.097Z,7.94
2018-12-01T13:13:05.218Z,7.88
2018-12-01T13:14:05.259Z,7.88
2018-12-01T13:15:05.114Z,7.88
2018-12-01T13:16:05.351Z,7.88
2018-12-01T13:17:05.552Z,7.88
2018-12-01T13:18:05.599Z,7.81
2018-12-01T13:19:05.617Z,7.81